イヌヴィック の空港の天気 - METARとTAF

イヌヴィック空港 ( CYEV / YEV ) - カナダ ノースウエスト準州イヌヴィック
飛行場実況気象(Metar)
観測時間11/14 10:00 MST (11/14 17:00 UTC)
風向・風速東 2m/s
視程9650m
天気現象弱い霧雪
全天を覆う雲 雲底高度 210m
気温-23℃
湿度76%
気圧1031.7hPa
METARCYEV 141700Z 09003KT 6SM -SG OVC007 M23/M26 A3043 RMK ST8 CIG RAG SLP317
過去の天気等 Google飛行場航空写真 Wunderground天気予報

過去48時間のMETAR

飛行場予報(TAF)
発表時間: 11/14 10:15 MST (11/14 17:15 UTC)
予報対象時間: 14日10時 MST ~ 14日18時 MST
風向・風速不定 2m/s
視程8050m
天気現象弱い雪 弱い霧雪
全天を覆う雲 雲底高度 210m
14日10時 MST ~ 14日18時 MST に一時的に
視程10km以上
天気現象運行に影響にある天気現象が終了
全天の4割程度の雲 雲底高度 240m
全天を覆う雲 雲底高度 460m
TAF AMD CYEV 141715Z 1417/1501 VRB03KT 5SM -SN -SG OVC007
TEMPO 1417/1501 P6SM NSW SCT008 OVC015 RMK NXT FCST BY 141900Z